Levelock, Alaska
Current Conditions -  °F | °C
As of 8:56 AM on Thursday 29 Jan 2015 (Local Time) from PFWS Reporting Station
Clear Clear  
Wind Chill: -24°   Ceiling: Unl
Heat Index:   Visibility: 10mi
Dew Point: -8°   Wind: 24mph
Humidity: 69%   Direction: 10°N
Pressure: 30.17"   Gusts: 31mph
Location:  59.11°N, 156.87°W
Report Text: PFWS 291756Z AUTO 01021G27KT 10SM CLR M18/M22 A3017 RMK AO2 PK WND 01028/1746 SLP222 T11781222 11167 21183 51019 FZRANO
Loading
Personal Weather Stations






























Interactive Weather Map New forecast layout! Learn more

10-Day Weather Forecast

Advertisements
Track Severe Weather on mobile